createdAt,value
2023-04-14T00:01:39.066Z,5.63
2023-04-14T00:04:05.949Z,5.57
2023-04-14T00:06:32.985Z,5.51
2023-04-14T00:08:59.718Z,5.48
2023-04-14T00:11:27.270Z,5.39
2023-04-14T00:13:55.967Z,5.31
2023-04-14T00:16:22.588Z,5.26
2023-04-14T00:18:49.215Z,5.19
2023-04-14T00:21:15.937Z,5.13
2023-04-14T00:23:42.491Z,5.09
2023-04-14T00:26:09.196Z,5.04
2023-04-14T00:28:35.783Z,5.05
2023-04-14T00:31:02.412Z,5.04
2023-04-14T00:33:29.216Z,4.98
2023-04-14T00:35:56.806Z,4.90
2023-04-14T00:38:23.919Z,4.86
2023-04-14T00:40:50.662Z,4.83
2023-04-14T00:43:20.425Z,4.79
2023-04-14T00:45:48.047Z,4.76
2023-04-14T00:48:15.798Z,4.73
2023-04-14T00:50:42.560Z,4.67
2023-04-14T00:53:09.221Z,4.61
2023-04-14T00:55:36.304Z,4.55
2023-04-14T00:58:03.530Z,4.49
2023-04-14T01:00:31.069Z,4.44
2023-04-14T01:02:57.808Z,4.42
2023-04-14T01:05:24.652Z,4.36
2023-04-14T01:07:51.377Z,4.30
2023-04-14T01:10:18.147Z,4.24
2023-04-14T01:12:53.566Z,4.21
2023-04-14T01:15:20.502Z,4.16
2023-04-14T01:18:10.334Z,4.16
2023-04-14T01:20:49.772Z,4.16
2023-04-14T01:23:21.723Z,4.08
2023-04-14T01:25:58.044Z,4.03
2023-04-14T01:28:45.875Z,3.96
2023-04-14T01:31:12.442Z,3.85
2023-04-14T01:33:41.364Z,3.76
2023-04-14T01:36:12.144Z,3.69
2023-04-14T01:38:41.145Z,3.62
2023-04-14T01:41:09.701Z,3.57
2023-04-14T01:43:40.024Z,3.51
2023-04-14T01:46:07.676Z,3.51
2023-04-14T01:48:34.625Z,3.49
2023-04-14T01:51:02.500Z,3.52
2023-04-14T01:53:31.351Z,3.56
2023-04-14T01:55:58.832Z,3.55
2023-04-14T01:58:26.251Z,3.52
2023-04-14T02:00:53.640Z,3.50
2023-04-14T02:03:21.818Z,3.50
2023-04-14T02:05:51.385Z,3.50
2023-04-14T02:08:19.765Z,3.50
2023-04-14T02:10:47.175Z,3.48
2023-04-14T02:13:13.998Z,3.44
2023-04-14T02:15:41.172Z,3.41
2023-04-14T02:18:08.128Z,3.39
2023-04-14T02:20:38.109Z,3.34
2023-04-14T02:23:04.720Z,3.28
2023-04-14T02:25:33.762Z,3.23
2023-04-14T02:28:02.662Z,3.18
2023-04-14T02:30:33.329Z,3.12
2023-04-14T02:33:03.238Z,3.14
2023-04-14T02:35:32.901Z,3.18
2023-04-14T02:38:03.552Z,3.19
2023-04-14T02:40:31.996Z,3.16
2023-04-14T02:43:04.599Z,3.15
2023-04-14T02:45:32.673Z,3.09
2023-04-14T02:48:07.126Z,3.06
2023-04-14T02:50:34.157Z,3.01
2023-04-14T02:53:02.166Z,2.93
2023-04-14T02:55:28.874Z,2.88
2023-04-14T02:57:55.675Z,2.86
2023-04-14T03:00:23.774Z,2.87
2023-04-14T03:02:52.691Z,2.88
2023-04-14T03:05:19.834Z,2.84
2023-04-14T03:07:47.571Z,2.81
2023-04-14T03:10:14.562Z,2.83
2023-04-14T03:12:41.357Z,2.84
2023-04-14T03:15:08.107Z,2.81
2023-04-14T03:17:36.203Z,2.81
2023-04-14T03:20:03.373Z,2.84
2023-04-14T03:22:31.051Z,2.82
2023-04-14T03:25:00.733Z,2.75
2023-04-14T03:27:28.099Z,2.73
2023-04-14T03:29:56.553Z,2.73
2023-04-14T03:32:25.307Z,2.78
2023-04-14T03:34:54.173Z,2.77
2023-04-14T03:37:24.098Z,2.81
2023-04-14T03:39:53.366Z,2.79
2023-04-14T03:42:21.365Z,2.82
2023-04-14T03:44:53.173Z,2.79
2023-04-14T03:47:22.440Z,2.69
2023-04-14T03:49:50.526Z,2.67
2023-04-14T03:52:18.160Z,2.71
2023-04-14T03:54:45.647Z,2.72
2023-04-14T03:57:13.758Z,2.69
2023-04-14T03:59:41.487Z,2.66
2023-04-14T04:02:08.861Z,2.65
2023-04-14T04:04:36.834Z,2.63
2023-04-14T04:07:05.306Z,2.63
2023-04-14T04:09:34.007Z,2.63
2023-04-14T04:12:01.674Z,2.64
2023-04-14T04:14:30.262Z,2.60
2023-04-14T04:16:59.909Z,2.59
2023-04-14T04:19:26.674Z,2.50
2023-04-14T04:21:56.024Z,2.48
2023-04-14T04:24:23.402Z,2.42
2023-04-14T04:26:50.116Z,2.46
2023-04-14T04:29:16.766Z,2.44
2023-04-14T04:31:44.657Z,2.43
2023-04-14T04:34:11.923Z,2.43
2023-04-14T04:36:39.552Z,2.45
2023-04-14T04:39:06.171Z,2.42
2023-04-14T04:41:32.731Z,2.45
2023-04-14T04:43:59.481Z,2.50
2023-04-14T04:46:48.746Z,2.58
2023-04-14T04:49:15.327Z,2.63
2023-04-14T04:51:42.918Z,2.58
2023-04-14T04:54:09.586Z,2.55
2023-04-14T04:56:36.354Z,2.56
2023-04-14T04:59:03.169Z,2.60
2023-04-14T05:01:30.105Z,2.64
2023-04-14T05:03:57.059Z,2.66
2023-04-14T05:06:23.666Z,2.63
2023-04-14T05:08:53.841Z,2.64
2023-04-14T05:11:20.803Z,2.66
2023-04-14T05:13:47.725Z,2.69
2023-04-14T05:16:14.618Z,2.72
2023-04-14T05:18:42.038Z,2.74
2023-04-14T05:21:08.650Z,2.81
2023-04-14T05:23:36.453Z,2.86
2023-04-14T05:26:22.330Z,2.89
2023-04-14T05:28:50.460Z,2.92
2023-04-14T05:31:17.133Z,2.96
2023-04-14T05:33:43.689Z,2.99
2023-04-14T05:36:11.062Z,3.08
2023-04-14T05:38:39.987Z,3.10
2023-04-14T05:41:07.504Z,3.14
2023-04-14T05:43:34.212Z,3.17
2023-04-14T05:46:01.618Z,3.18
2023-04-14T05:48:30.772Z,3.15
2023-04-14T05:50:58.058Z,3.12
2023-04-14T05:53:24.927Z,3.12
2023-04-14T05:55:51.883Z,3.14
2023-04-14T05:58:18.468Z,3.14
2023-04-14T06:00:44.999Z,3.14
2023-04-14T06:03:11.889Z,3.22
2023-04-14T06:05:38.650Z,3.33
2023-04-14T06:08:05.312Z,3.44
2023-04-14T06:10:32.229Z,3.54
2023-04-14T06:12:58.829Z,3.57
2023-04-14T06:15:28.267Z,3.60
2023-04-14T06:17:54.906Z,3.60
2023-04-14T06:20:22.019Z,3.63
2023-04-14T06:22:48.580Z,3.67
2023-04-14T06:25:15.329Z,3.67
2023-04-14T06:27:41.923Z,3.66
2023-04-14T06:30:08.734Z,3.69
2023-04-14T06:32:35.547Z,3.70
2023-04-14T06:35:04.937Z,3.57
2023-04-14T06:37:32.445Z,3.62
2023-04-14T06:39:59.103Z,3.73
2023-04-14T06:42:25.855Z,3.82
2023-04-14T06:44:52.455Z,3.86
2023-04-14T06:47:19.839Z,3.87
2023-04-14T06:49:46.517Z,3.90
2023-04-14T06:52:13.068Z,3.90
2023-04-14T06:54:39.678Z,3.93
2023-04-14T06:57:06.331Z,3.98
2023-04-14T06:59:32.981Z,4.07
2023-04-14T07:01:59.724Z,4.10
2023-04-14T07:04:26.690Z,4.11
2023-04-14T07:06:53.447Z,4.15
2023-04-14T07:09:21.247Z,4.16
2023-04-14T07:11:48.084Z,4.16
2023-04-14T07:14:14.942Z,4.19
2023-04-14T07:16:41.644Z,4.23
2023-04-14T07:19:08.716Z,4.28
2023-04-14T07:21:35.590Z,4.38
2023-04-14T07:24:02.506Z,4.52
2023-04-14T07:26:29.307Z,4.70
2023-04-14T07:28:56.111Z,4.81
2023-04-14T07:31:22.891Z,4.86
2023-04-14T07:33:49.521Z,4.94
2023-04-14T07:36:16.215Z,5.00
2023-04-14T07:38:43.949Z,5.05
2023-04-14T07:41:10.711Z,5.03
2023-04-14T07:43:37.517Z,5.05
2023-04-14T07:46:05.672Z,5.07
2023-04-14T07:48:33.957Z,5.12
2023-04-14T07:51:01.067Z,5.18
2023-04-14T07:53:27.840Z,5.23
2023-04-14T07:55:54.442Z,5.28
2023-04-14T07:58:24.038Z,5.31
2023-04-14T08:00:52.442Z,5.31
2023-04-14T08:03:19.260Z,5.32
2023-04-14T08:05:46.138Z,5.38
2023-04-14T08:08:13.465Z,5.44
2023-04-14T08:10:41.614Z,5.47
2023-04-14T08:13:08.346Z,5.55
2023-04-14T08:15:35.082Z,5.64
2023-04-14T08:18:01.957Z,5.71
2023-04-14T08:20:28.697Z,5.82
2023-04-14T08:22:56.608Z,5.93
2023-04-14T08:25:23.290Z,6.03
2023-04-14T08:27:49.885Z,6.16
2023-04-14T08:30:16.690Z,6.25
2023-04-14T08:32:43.371Z,6.26
2023-04-14T08:35:39.396Z,6.27
2023-04-14T08:37:56.881Z,6.31
2023-04-14T08:40:25.365Z,6.37
2023-04-14T08:42:52.024Z,6.22
2023-04-14T08:45:20.028Z,6.06
2023-04-14T08:47:48.140Z,6.03
2023-04-14T08:50:18.221Z,6.09
2023-04-14T08:52:45.955Z,6.10
2023-04-14T08:55:13.790Z,6.20
2023-04-14T08:57:42.565Z,6.22
2023-04-14T09:00:09.812Z,6.22
2023-04-14T09:02:38.473Z,6.33
2023-04-14T09:05:05.484Z,6.48
2023-04-14T09:07:32.170Z,6.66
2023-04-14T09:09:59.302Z,6.83
2023-04-14T09:12:26.632Z,6.92
2023-04-14T09:14:54.088Z,6.94
2023-04-14T09:17:20.827Z,6.99
2023-04-14T09:20:36.396Z,7.00
2023-04-14T09:22:34.580Z,7.05
2023-04-14T09:25:01.328Z,7.17
2023-04-14T09:27:29.366Z,7.30
2023-04-14T09:29:57.583Z,7.35
2023-04-14T09:32:24.507Z,7.40
2023-04-14T09:34:56.551Z,7.48
2023-04-14T09:37:24.971Z,7.44
2023-04-14T09:39:52.586Z,7.45
2023-04-14T09:42:19.597Z,7.52
2023-04-14T09:44:56.156Z,7.62
2023-04-14T09:47:23.980Z,7.72
2023-04-14T09:49:59.697Z,7.83
2023-04-14T09:52:38.706Z,7.95
2023-04-14T09:55:12.373Z,8.11
2023-04-14T09:57:43.260Z,8.25
2023-04-14T10:00:16.217Z,8.28
2023-04-14T10:02:50.009Z,8.38
2023-04-14T10:05:19.578Z,8.57
2023-04-14T10:07:46.585Z,8.62
2023-04-14T10:10:13.870Z,8.56
2023-04-14T10:12:47.043Z,8.57
2023-04-14T10:15:15.570Z,8.68
2023-04-14T10:17:42.752Z,8.82
2023-04-14T10:20:10.204Z,9.08
2023-04-14T10:22:37.973Z,9.83
2023-04-14T10:25:07.034Z,10.89
2023-04-14T10:27:34.120Z,11.94
2023-04-14T10:30:01.403Z,12.89
2023-04-14T10:32:31.476Z,13.68
2023-04-14T10:34:58.882Z,14.41
2023-04-14T10:37:25.753Z,15.22
2023-04-14T10:39:59.580Z,15.95
2023-04-14T10:42:26.697Z,16.44
2023-04-14T10:45:03.317Z,16.65
2023-04-14T10:47:30.178Z,16.93
2023-04-14T10:50:04.387Z,17.06
2023-04-14T10:52:32.182Z,17.20
2023-04-14T10:55:07.861Z,17.52
2023-04-14T10:57:42.241Z,17.97
2023-04-14T11:00:21.526Z,18.38
2023-04-14T11:02:57.450Z,18.82
2023-04-14T11:05:24.523Z,19.29
2023-04-14T11:08:00.810Z,19.53
2023-04-14T11:10:31.692Z,19.53
2023-04-14T11:12:58.392Z,19.52
2023-04-14T11:15:42.678Z,19.57
2023-04-14T11:18:14.588Z,19.61
2023-04-14T11:20:44.621Z,19.91
2023-04-14T11:23:13.579Z,20.18
2023-04-14T11:25:40.530Z,20.49
2023-04-14T11:28:08.068Z,20.79
2023-04-14T11:30:34.864Z,20.97
2023-04-14T11:33:01.882Z,21.08
2023-04-14T11:35:29.230Z,21.19
2023-04-14T11:37:56.659Z,21.40
2023-04-14T11:40:24.123Z,21.67
2023-04-14T11:42:55.594Z,21.89
2023-04-14T11:45:22.367Z,22.20
2023-04-14T11:48:05.144Z,22.57
2023-04-14T11:50:32.895Z,22.75
2023-04-14T11:53:00.419Z,22.70
2023-04-14T11:55:27.777Z,22.29
2023-04-14T11:57:55.223Z,21.90
2023-04-14T12:00:21.923Z,21.82
2023-04-14T12:02:49.184Z,21.71
2023-04-14T12:05:21.177Z,21.72
2023-04-14T12:07:48.953Z,21.78
2023-04-14T12:10:15.795Z,21.68
2023-04-14T12:12:42.803Z,21.93
2023-04-14T12:15:09.752Z,22.04
2023-04-14T12:17:37.335Z,22.21
2023-04-14T12:20:05.595Z,22.42
2023-04-14T12:22:32.307Z,22.35
2023-04-14T12:24:58.961Z,22.48
2023-04-14T12:27:25.887Z,22.55
2023-04-14T12:29:52.815Z,22.58
2023-04-14T12:32:21.403Z,22.71
2023-04-14T12:34:55.474Z,22.73
2023-04-14T12:37:24.913Z,22.80
2023-04-14T12:39:52.814Z,22.86
2023-04-14T12:42:19.645Z,22.95
2023-04-14T12:44:55.963Z,23.02
2023-04-14T12:47:33.393Z,23.03
2023-04-14T12:50:00.759Z,22.78
2023-04-14T12:52:35.047Z,22.08
2023-04-14T12:55:03.151Z,21.61
2023-04-14T12:57:29.903Z,21.44
2023-04-14T12:59:56.631Z,21.72
2023-04-14T13:02:23.816Z,21.86
2023-04-14T13:04:50.664Z,22.04
2023-04-14T13:07:17.338Z,22.17
2023-04-14T13:09:44.030Z,22.46
2023-04-14T13:12:10.640Z,22.67
2023-04-14T13:14:37.282Z,22.74
2023-04-14T13:17:06.260Z,22.62
2023-04-14T13:19:33.029Z,22.60
2023-04-14T13:21:59.738Z,22.79
2023-04-14T13:24:26.462Z,22.64
2023-04-14T13:26:53.125Z,22.55
2023-04-14T13:29:19.758Z,22.24
2023-04-14T13:31:46.673Z,21.92
2023-04-14T13:34:13.464Z,21.81
2023-04-14T13:36:40.194Z,21.57
2023-04-14T13:39:06.924Z,21.32
2023-04-14T13:41:33.596Z,20.98
2023-04-14T13:44:00.208Z,21.00
2023-04-14T13:46:26.928Z,20.94
2023-04-14T13:48:54.750Z,20.83
2023-04-14T13:51:23.769Z,20.64
2023-04-14T13:53:50.613Z,20.47
2023-04-14T13:56:17.255Z,20.25
2023-04-14T13:58:44.087Z,20.20
2023-04-14T14:01:11.721Z,20.11
2023-04-14T14:03:39.854Z,20.05
2023-04-14T14:06:07.703Z,20.08
2023-04-14T14:08:37.821Z,20.15
2023-04-14T14:11:05.668Z,20.22
2023-04-14T14:13:36.168Z,19.92
2023-04-14T14:16:03.464Z,19.82
2023-04-14T14:18:30.166Z,19.56
2023-04-14T14:20:56.966Z,19.27
2023-04-14T14:23:23.663Z,19.01
2023-04-14T14:25:50.292Z,18.33
2023-04-14T14:28:17.317Z,17.50
2023-04-14T14:30:44.019Z,17.09
2023-04-14T14:33:10.737Z,16.93
2023-04-14T14:35:37.747Z,16.96
2023-04-14T14:38:04.455Z,16.96
2023-04-14T14:40:31.252Z,17.13
2023-04-14T14:42:58.118Z,17.13
2023-04-14T14:45:30.372Z,17.11
2023-04-14T14:47:58.145Z,16.96
2023-04-14T14:50:24.789Z,16.94
2023-04-14T14:52:51.415Z,16.87
2023-04-14T14:55:18.141Z,16.86
2023-04-14T14:57:44.751Z,16.85
2023-04-14T15:00:11.604Z,16.93
2023-04-14T15:02:38.971Z,16.76
2023-04-14T15:05:07.323Z,16.53
2023-04-14T15:07:34.061Z,16.23
2023-04-14T15:10:03.593Z,15.61
2023-04-14T15:12:30.801Z,14.78
2023-04-14T15:14:57.442Z,13.96
2023-04-14T15:17:24.196Z,13.22
2023-04-14T15:19:50.798Z,12.64
2023-04-14T15:22:17.383Z,12.26
2023-04-14T15:24:43.962Z,11.96
2023-04-14T15:27:10.593Z,11.61
2023-04-14T15:29:37.297Z,11.21
2023-04-14T15:32:03.907Z,10.92
2023-04-14T15:34:30.568Z,10.66
2023-04-14T15:36:57.193Z,10.48
2023-04-14T15:39:23.774Z,10.15
2023-04-14T15:41:50.538Z,9.71
2023-04-14T15:44:17.664Z,9.35
2023-04-14T15:46:44.366Z,9.05
2023-04-14T15:49:10.959Z,8.82
2023-04-14T15:51:37.570Z,8.63
2023-04-14T15:54:05.166Z,8.44
2023-04-14T15:56:31.859Z,8.30
2023-04-14T15:58:58.424Z,8.23
2023-04-14T16:01:25.096Z,8.17
2023-04-14T16:03:52.895Z,8.14
2023-04-14T16:06:19.683Z,8.12
2023-04-14T16:08:46.412Z,8.05
2023-04-14T16:11:16.474Z,8.00
2023-04-14T16:13:46.209Z,7.95
2023-04-14T16:16:13.693Z,7.88
2023-04-14T16:18:40.356Z,7.78
2023-04-14T16:21:06.977Z,7.67
2023-04-14T16:23:33.622Z,7.63
2023-04-14T16:26:00.980Z,7.61
2023-04-14T16:28:28.345Z,7.55
2023-04-14T16:30:55.483Z,7.54
2023-04-14T16:33:22.120Z,7.50
2023-04-14T16:35:48.679Z,7.43
2023-04-14T16:38:15.289Z,7.32
2023-04-14T16:40:42.713Z,7.24
2023-04-14T16:43:09.711Z,7.22
2023-04-14T16:45:36.549Z,7.23
2023-04-14T16:48:03.389Z,7.22
2023-04-14T16:50:32.179Z,7.19
2023-04-14T16:52:58.760Z,7.14
2023-04-14T16:55:25.392Z,7.05
2023-04-14T16:57:52.173Z,7.01
2023-04-14T17:00:18.963Z,6.98
2023-04-14T17:02:45.937Z,6.95
2023-04-14T17:05:15.891Z,6.91
2023-04-14T17:07:42.913Z,6.87
2023-04-14T17:10:09.817Z,6.92
2023-04-14T17:12:36.354Z,6.98
2023-04-14T17:15:04.499Z,6.97
2023-04-14T17:17:32.083Z,6.94
2023-04-14T17:19:58.808Z,6.89
2023-04-14T17:22:25.494Z,6.84
2023-04-14T17:24:52.534Z,6.79
2023-04-14T17:27:19.391Z,6.73
2023-04-14T17:29:46.437Z,6.68
2023-04-14T17:32:13.225Z,6.62
2023-04-14T17:34:40.122Z,6.59
2023-04-14T17:37:06.869Z,6.53
2023-04-14T17:39:33.586Z,6.47
2023-04-14T17:42:00.578Z,6.52
2023-04-14T17:44:32.138Z,6.49
2023-04-14T17:47:03.423Z,6.49
2023-04-14T17:49:31.522Z,6.54
2023-04-14T17:51:58.152Z,6.54
2023-04-14T17:54:25.158Z,6.47
2023-04-14T17:56:51.871Z,6.37
2023-04-14T17:59:18.549Z,6.25
2023-04-14T18:01:45.301Z,6.18
2023-04-14T18:04:12.106Z,6.08
2023-04-14T18:06:39.140Z,6.03
2023-04-14T18:09:05.745Z,5.98
2023-04-14T18:11:32.299Z,6.00
2023-04-14T18:13:58.933Z,5.92
2023-04-14T18:16:25.604Z,5.86
2023-04-14T18:18:52.194Z,5.77
2023-04-14T18:21:18.883Z,5.70
2023-04-14T18:23:45.437Z,5.67
2023-04-14T18:28:42.152Z,5.58
2023-04-14T18:31:09.038Z,5.58
2023-04-14T18:33:35.821Z,5.54
2023-04-14T18:36:02.437Z,5.57
2023-04-14T18:38:29.076Z,5.49
2023-04-14T18:41:01.264Z,5.46
2023-04-14T18:43:28.313Z,5.46
2023-04-14T18:45:55.135Z,5.42
2023-04-14T18:48:21.829Z,5.38
2023-04-14T18:50:56.633Z,5.34
2023-04-14T18:53:23.299Z,5.33
2023-04-14T18:55:50.010Z,5.24
2023-04-14T18:58:17.228Z,5.16
2023-04-14T19:00:45.038Z,5.09
2023-04-14T19:03:11.766Z,5.07
2023-04-14T19:05:38.397Z,5.01
2023-04-14T19:08:05.098Z,4.99
2023-04-14T19:10:31.851Z,4.95
2023-04-14T19:12:58.539Z,4.94
2023-04-14T19:15:28.630Z,4.93
2023-04-14T19:17:55.933Z,4.88
2023-04-14T19:20:24.414Z,4.87
2023-04-14T19:22:51.161Z,4.78
2023-04-14T19:25:17.831Z,4.71
2023-04-14T19:27:44.465Z,4.66
2023-04-14T19:30:11.288Z,4.59
2023-04-14T19:32:38.002Z,4.51
2023-04-14T19:35:06.480Z,4.46
2023-04-14T19:37:33.839Z,4.46
2023-04-14T19:40:00.822Z,4.42
2023-04-14T19:42:27.446Z,4.42
2023-04-14T19:44:54.086Z,4.44
2023-04-14T19:47:21.074Z,4.48
2023-04-14T19:49:48.056Z,4.48
2023-04-14T19:52:15.340Z,4.40
2023-04-14T19:54:41.992Z,4.29
2023-04-14T19:57:08.574Z,4.18
2023-04-14T19:59:35.178Z,4.20
2023-04-14T20:02:02.020Z,4.16
2023-04-14T20:04:28.689Z,4.18
2023-04-14T20:06:55.365Z,4.16
2023-04-14T20:09:21.946Z,4.05
2023-04-14T20:11:48.508Z,4.05
2023-04-14T20:14:16.202Z,4.10
2023-04-14T20:16:42.996Z,4.12
2023-04-14T20:19:09.953Z,4.06
2023-04-14T20:21:36.512Z,4.05
2023-04-14T20:24:03.887Z,4.00
2023-04-14T20:26:30.487Z,3.97
2023-04-14T20:28:57.052Z,3.94
2023-04-14T20:31:24.368Z,3.89
2023-04-14T20:33:51.050Z,3.90
2023-04-14T20:36:17.708Z,3.95
2023-04-14T20:38:44.311Z,3.92
2023-04-14T20:41:11.269Z,3.91
2023-04-14T20:43:37.899Z,3.96
2023-04-14T20:46:05.291Z,3.98
2023-04-14T20:48:32.312Z,3.96
2023-04-14T20:50:59.856Z,3.97
2023-04-14T20:53:28.561Z,3.97
2023-04-14T20:55:55.178Z,3.87
2023-04-14T20:58:21.870Z,3.81
2023-04-14T21:00:49.148Z,3.80
2023-04-14T21:03:16.051Z,3.76
2023-04-14T21:05:42.884Z,3.73
2023-04-14T21:08:09.743Z,3.71
2023-04-14T21:10:36.379Z,3.70
2023-04-14T21:15:26.352Z,3.68
2023-04-14T21:16:09.708Z,3.62
2023-04-14T21:18:36.377Z,3.53
2023-04-14T21:21:04.894Z,3.48
2023-04-14T21:23:31.648Z,3.45
2023-04-14T21:25:59.991Z,3.44
2023-04-14T21:28:27.188Z,3.43
2023-04-14T21:31:00.434Z,3.42
2023-04-14T21:33:30.707Z,3.41
2023-04-14T21:35:57.555Z,3.35
2023-04-14T21:38:24.845Z,3.38
2023-04-14T21:40:51.602Z,3.34
2023-04-14T21:43:18.287Z,3.27
2023-04-14T21:45:45.040Z,3.21
2023-04-14T21:48:12.621Z,3.23
2023-04-14T21:50:39.743Z,3.22
2023-04-14T21:53:06.413Z,3.17
2023-04-14T21:55:33.106Z,3.18
2023-04-14T21:58:00.994Z,3.18
2023-04-14T22:00:27.934Z,3.14
2023-04-14T22:02:54.704Z,3.12
2023-04-14T22:05:21.440Z,3.13
2023-04-14T22:07:48.116Z,3.14
2023-04-14T22:10:14.799Z,3.09
2023-04-14T22:12:42.480Z,3.08
2023-04-14T22:15:10.499Z,3.02
2023-04-14T22:17:38.775Z,2.98
2023-04-14T22:20:06.107Z,2.92
2023-04-14T22:22:33.060Z,2.88
2023-04-14T22:25:00.141Z,2.83
2023-04-14T22:27:26.906Z,2.84
2023-04-14T22:29:54.110Z,2.84
2023-04-14T22:32:20.871Z,2.85
2023-04-14T22:34:47.489Z,2.90
2023-04-14T22:37:14.091Z,2.95
2023-04-14T22:39:40.774Z,2.85
2023-04-14T22:42:07.339Z,2.76
2023-04-14T22:44:33.912Z,2.66
2023-04-14T22:47:01.053Z,2.66
2023-04-14T22:49:27.666Z,2.58
2023-04-14T22:51:54.315Z,2.56
2023-04-14T22:54:20.950Z,2.54
2023-04-14T22:56:48.199Z,2.51
2023-04-14T22:59:16.821Z,2.47
2023-04-14T23:01:43.586Z,2.45
2023-04-14T23:04:10.230Z,2.47
2023-04-14T23:06:37.021Z,2.44
2023-04-14T23:09:03.814Z,2.46
2023-04-14T23:11:30.503Z,2.47
2023-04-14T23:13:57.254Z,2.45
2023-04-14T23:16:24.124Z,2.40
2023-04-14T23:18:52.943Z,2.31
2023-04-14T23:21:22.312Z,2.28
2023-04-14T23:23:49.553Z,2.35
2023-04-14T23:26:17.202Z,2.35
2023-04-14T23:28:43.882Z,2.32
2023-04-14T23:31:10.954Z,2.31
2023-04-14T23:33:37.620Z,2.24
2023-04-14T23:36:04.279Z,2.16
2023-04-14T23:38:30.880Z,2.09
2023-04-14T23:40:59.136Z,2.16
2023-04-14T23:43:29.171Z,2.18
2023-04-14T23:45:56.021Z,2.08
2023-04-14T23:48:22.606Z,2.16
2023-04-14T23:51:01.717Z,2.14
2023-04-14T23:53:36.175Z,2.06
2023-04-14T23:56:03.433Z,1.99
2023-04-14T23:58:30.474Z,1.91
